createdAt,value
2018-04-25T06:29:07.291Z,36.14
2018-04-25T06:31:32.848Z,59.21
2018-04-25T06:33:58.512Z,61.79
2018-04-25T06:36:25.291Z,62.89
2018-04-25T06:38:51.108Z,63.55
2018-04-25T06:41:16.703Z,63.85
2018-04-25T06:43:42.483Z,63.47
2018-04-25T06:46:08.446Z,63.63
2018-04-25T06:48:34.058Z,63.47
2018-04-25T06:50:59.903Z,63.49
2018-04-25T06:53:25.485Z,63.75
2018-04-25T06:55:51.127Z,63.42
2018-04-25T06:58:17.424Z,63.50
2018-04-25T07:00:43.215Z,63.45
2018-04-25T07:03:08.828Z,63.18
2018-04-25T07:05:34.620Z,62.99
2018-04-25T07:08:00.398Z,62.79
2018-04-25T07:10:25.949Z,62.42
2018-04-25T07:12:51.808Z,62.01
2018-04-25T07:15:17.586Z,61.87
2018-04-25T07:17:43.244Z,61.90
2018-04-25T07:20:08.927Z,61.61
2018-04-25T07:22:34.774Z,61.53
2018-04-25T07:25:00.340Z,60.93
2018-04-25T07:27:25.974Z,61.10
2018-04-25T07:29:51.797Z,60.77
2018-04-25T07:32:17.356Z,60.90
2018-04-25T07:34:43.528Z,60.40
2018-04-25T07:37:09.403Z,59.89
2018-04-25T07:39:35.025Z,60.08
2018-04-25T07:42:00.743Z,59.41
2018-04-25T07:44:26.494Z,59.34
2018-04-25T07:46:52.055Z,59.23
2018-04-25T07:49:18.101Z,57.64
2018-04-25T07:51:43.940Z,58.62
2018-04-25T07:54:09.665Z,58.02
2018-04-25T07:56:35.499Z,55.16
2018-04-25T07:59:01.323Z,55.24
2018-04-25T08:01:26.894Z,53.86
2018-04-25T08:03:52.454Z,53.04
2018-04-25T08:06:18.304Z,53.73
2018-04-25T08:08:43.971Z,53.42
2018-04-25T08:11:09.706Z,52.97
2018-04-25T08:14:13.221Z,52.69
2018-04-25T08:17:16.399Z,52.56
2018-04-25T08:20:19.828Z,51.61
2018-04-25T08:22:45.447Z,52.56
2018-04-25T08:25:11.094Z,52.32
2018-04-25T08:27:36.897Z,52.43
2018-04-25T08:30:02.757Z,52.70
2018-04-25T08:32:28.307Z,53.06
2018-04-25T08:34:54.218Z,53.16
2018-04-25T08:37:19.859Z,53.12
2018-04-25T08:39:45.415Z,53.19
2018-04-25T08:42:11.213Z,52.30
2018-04-25T08:44:36.958Z,52.72
2018-04-25T08:47:02.422Z,52.10
2018-04-25T08:49:28.173Z,52.23
2018-04-25T08:51:53.760Z,51.95
2018-04-25T08:54:19.711Z,51.82
2018-04-25T08:56:45.561Z,52.02
2018-04-25T08:59:11.327Z,51.88
2018-04-25T09:01:36.860Z,50.55
2018-04-25T09:04:02.643Z,49.75
2018-04-25T09:06:28.300Z,49.47
2018-04-25T09:08:53.867Z,48.46
2018-04-25T09:11:19.681Z,47.61
2018-04-25T09:13:45.289Z,47.71
2018-04-25T09:16:10.879Z,47.52
2018-04-25T09:18:36.666Z,48.20
2018-04-25T09:21:02.494Z,47.50
2018-04-25T09:23:28.056Z,47.39
2018-04-25T09:25:54.185Z,46.68
2018-04-25T09:28:19.749Z,46.24
2018-04-25T09:30:45.417Z,46.44
2018-04-25T09:33:11.189Z,45.27
2018-04-25T09:35:36.772Z,45.42
2018-04-25T09:38:02.326Z,44.79
2018-04-25T09:40:28.546Z,45.15
2018-04-25T09:42:54.160Z,45.30
2018-04-25T09:45:19.996Z,44.21
2018-04-25T09:47:45.691Z,43.33
2018-04-25T09:50:11.243Z,43.04
2018-04-25T09:52:37.030Z,43.06
2018-04-25T09:55:02.862Z,42.73
2018-04-25T09:57:28.476Z,43.30
2018-04-25T09:59:54.064Z,43.31
2018-04-25T10:02:38.052Z,41.56
2018-04-25T10:05:03.941Z,41.08
2018-04-25T10:07:29.562Z,41.65
2018-04-25T10:09:55.399Z,41.00
2018-04-25T10:12:20.968Z,41.00
2018-04-25T10:14:46.745Z,40.96
2018-04-25T10:17:12.591Z,40.88
2018-04-25T10:19:38.141Z,40.78
2018-04-25T10:22:04.045Z,41.16
2018-04-25T10:24:29.768Z,40.84
2018-04-25T10:26:55.345Z,39.23
2018-04-25T10:29:20.924Z,38.99
2018-04-25T10:31:46.730Z,38.28
2018-04-25T10:34:12.350Z,39.31
2018-04-25T10:36:37.931Z,40.12
2018-04-25T10:39:03.641Z,40.12
2018-04-25T10:41:29.357Z,40.29
2018-04-25T10:43:55.046Z,40.31
2018-04-25T10:46:21.008Z,40.99
2018-04-25T10:48:46.577Z,40.46
2018-04-25T10:51:12.165Z,40.12
2018-04-25T10:53:37.890Z,41.26
2018-04-25T10:56:03.477Z,41.26
2018-04-25T10:58:29.096Z,41.13
2018-04-25T11:00:54.812Z,40.42
2018-04-25T11:03:20.422Z,40.89
2018-04-25T11:05:46.018Z,40.93
2018-04-25T11:08:11.812Z,40.64
2018-04-25T11:10:37.500Z,41.75
2018-04-25T11:13:03.071Z,41.08
2018-04-25T11:15:28.983Z,41.95
2018-04-25T11:17:54.561Z,42.62
2018-04-25T11:20:20.227Z,43.08
2018-04-25T11:22:45.953Z,42.76
2018-04-25T11:25:11.636Z,42.78
2018-04-25T11:27:37.421Z,42.93
2018-04-25T11:30:03.015Z,43.23
2018-04-25T11:32:28.581Z,43.33
2018-04-25T11:34:54.450Z,42.64
2018-04-25T11:37:20.225Z,43.31
2018-04-25T11:39:45.860Z,43.77
2018-04-25T11:42:11.681Z,43.34
2018-04-25T11:44:37.300Z,42.23
2018-04-25T11:47:02.987Z,41.88
2018-04-25T11:49:28.859Z,42.05
2018-04-25T11:51:54.537Z,42.05
2018-04-25T11:54:20.091Z,42.32
2018-04-25T11:56:46.015Z,41.64
2018-04-25T11:59:11.584Z,42.13
2018-04-25T12:01:37.166Z,39.96
2018-04-25T12:04:02.993Z,40.92
2018-04-25T12:06:28.577Z,39.83
2018-04-25T12:08:54.136Z,39.04
2018-04-25T12:11:19.961Z,38.47
2018-04-25T12:13:45.572Z,38.67
2018-04-25T12:16:11.336Z,37.98
2018-04-25T12:18:37.168Z,39.00
2018-04-25T12:21:02.703Z,39.26
2018-04-25T12:23:28.289Z,38.63
2018-04-25T12:25:54.079Z,37.41
2018-04-25T12:28:19.649Z,38.91
2018-04-25T12:30:45.445Z,38.15
2018-04-25T12:33:11.323Z,37.51
2018-04-25T12:35:37.082Z,37.25
2018-04-25T12:38:02.675Z,37.36
2018-04-25T12:40:28.536Z,38.10
2018-04-25T12:42:54.104Z,38.66
2018-04-25T12:45:19.666Z,38.57
2018-04-25T12:47:45.497Z,38.62
2018-04-25T12:50:11.242Z,39.03
2018-04-25T12:52:36.870Z,39.58
2018-04-25T12:55:02.512Z,39.45
2018-04-25T12:57:28.439Z,39.58
2018-04-25T12:59:55.057Z,39.12
2018-04-25T13:02:20.613Z,40.13
2018-04-25T13:04:46.670Z,39.96
2018-04-25T13:07:12.300Z,40.49
2018-04-25T13:09:38.127Z,40.15
2018-04-25T13:12:04.075Z,40.21
2018-04-25T13:14:29.747Z,40.82
2018-04-25T13:16:55.336Z,40.29
2018-04-25T13:19:21.125Z,41.04
2018-04-25T13:21:46.891Z,40.70
2018-04-25T13:24:12.582Z,41.40
2018-04-25T13:26:38.159Z,40.55
2018-04-25T13:29:03.866Z,40.80
2018-04-25T13:31:29.481Z,39.86
2018-04-25T13:33:55.189Z,40.03
2018-04-25T13:36:21.264Z,38.58
2018-04-25T13:38:46.873Z,39.16
2018-04-25T13:41:12.418Z,39.60
2018-04-25T13:43:40.521Z,37.96
2018-04-25T13:46:06.169Z,38.33
2018-04-25T13:48:31.745Z,37.25
2018-04-25T13:50:57.461Z,37.48
2018-04-25T13:53:23.054Z,38.31
2018-04-25T13:55:48.721Z,36.42
2018-04-25T13:58:14.611Z,37.70
2018-04-25T14:00:40.415Z,37.88
2018-04-25T14:03:06.098Z,37.11
2018-04-25T14:05:32.117Z,37.82
2018-04-25T14:07:57.734Z,37.93
2018-04-25T14:10:23.499Z,39.77
2018-04-25T14:12:49.361Z,39.57
2018-04-25T14:15:14.969Z,40.86
2018-04-25T14:17:40.582Z,41.56
2018-04-25T14:20:06.382Z,41.56
2018-04-25T14:22:31.955Z,41.07
2018-04-25T14:24:57.532Z,41.70
2018-04-25T14:27:23.331Z,41.65
2018-04-25T14:29:48.915Z,42.51
2018-04-25T14:32:14.544Z,42.41
2018-04-25T14:34:40.645Z,42.78
2018-04-25T14:37:06.275Z,41.77
2018-04-25T14:39:31.907Z,43.12
2018-04-25T14:41:58.096Z,44.40
2018-04-25T14:44:23.653Z,45.85
2018-04-25T14:46:49.242Z,45.33
2018-04-25T14:49:15.385Z,44.72
2018-04-25T14:51:40.962Z,44.53
2018-04-25T14:54:06.537Z,43.85
2018-04-25T14:56:32.365Z,43.39
2018-04-25T14:58:57.939Z,43.07
2018-04-25T15:01:23.891Z,42.66
2018-04-25T15:03:49.592Z,42.88
2018-04-25T15:06:15.211Z,42.50
2018-04-25T15:08:41.136Z,43.13
2018-04-25T15:11:07.036Z,42.09
2018-04-25T15:13:32.821Z,41.99
2018-04-25T15:15:58.394Z,39.61
2018-04-25T15:18:24.157Z,40.66
2018-04-25T15:20:49.729Z,39.54
2018-04-25T15:23:15.711Z,38.11
2018-04-25T15:25:41.554Z,38.73
2018-04-25T15:28:07.140Z,37.67
2018-04-25T15:30:32.772Z,38.13
2018-04-25T15:32:58.784Z,38.47
2018-04-25T15:35:24.351Z,37.17
2018-04-25T15:37:50.189Z,38.81
2018-04-25T15:40:16.080Z,39.28
2018-04-25T15:42:41.658Z,39.78
2018-04-25T15:45:07.234Z,40.40
2018-04-25T15:47:32.979Z,41.33
2018-04-25T15:49:58.599Z,41.65
2018-04-25T15:52:24.325Z,42.06
2018-04-25T15:54:50.146Z,41.73
2018-04-25T15:57:15.775Z,41.25
2018-04-25T15:59:41.339Z,41.12
2018-04-25T16:02:07.345Z,41.96
2018-04-25T16:04:33.372Z,43.60
2018-04-25T16:06:58.949Z,43.22
2018-04-25T16:09:24.691Z,44.51
2018-04-25T16:11:50.348Z,44.12
2018-04-25T16:14:16.224Z,44.63
2018-04-25T16:16:41.837Z,45.23
2018-04-25T16:19:07.593Z,45.21
2018-04-25T16:21:33.171Z,44.77
2018-04-25T16:23:58.881Z,44.81
2018-04-25T16:26:25.299Z,44.75
2018-04-25T16:28:51.203Z,44.95
2018-04-25T16:31:17.844Z,45.74
2018-04-25T16:33:43.769Z,46.36
2018-04-25T16:36:09.396Z,47.08
2018-04-25T16:38:35.222Z,46.84
2018-04-25T16:41:01.188Z,46.84
2018-04-25T16:43:26.750Z,47.26
2018-04-25T16:45:52.707Z,47.75
2018-04-25T16:48:18.294Z,47.50
2018-04-25T16:50:43.904Z,47.13
2018-04-25T16:53:09.739Z,47.52
2018-04-25T16:55:35.508Z,46.72
2018-04-25T16:58:01.084Z,46.92
2018-04-25T17:00:26.910Z,47.32
2018-04-25T17:02:52.529Z,47.23
2018-04-25T17:05:18.144Z,47.68
2018-04-25T17:07:43.994Z,47.08
2018-04-25T17:10:09.898Z,46.59
2018-04-25T17:12:36.385Z,46.87
2018-04-25T17:15:04.324Z,46.44
2018-04-25T17:17:30.399Z,46.93
2018-04-25T17:19:55.999Z,47.40
2018-04-25T17:22:22.458Z,47.81
2018-04-25T17:24:48.261Z,47.88
2018-04-25T17:27:13.888Z,48.32
2018-04-25T17:29:39.469Z,48.57
2018-04-25T17:32:05.362Z,49.39
2018-04-25T17:34:30.989Z,50.13
2018-04-25T17:36:56.621Z,51.27
2018-04-25T17:39:23.019Z,51.46
2018-04-25T17:41:48.570Z,52.71
2018-04-25T17:44:14.133Z,53.02
2018-04-25T17:46:40.688Z,52.81
2018-04-25T17:49:06.322Z,53.58
2018-04-25T17:51:31.955Z,53.31
2018-04-25T17:53:57.801Z,53.57
2018-04-25T17:56:23.425Z,54.04
2018-04-25T17:58:49.046Z,54.00
2018-04-25T18:01:15.140Z,54.84
2018-04-25T18:03:40.801Z,53.88
2018-04-25T18:06:06.796Z,54.05
2018-04-25T18:08:32.586Z,54.61
2018-04-25T18:10:58.208Z,54.72
2018-04-25T18:13:23.846Z,54.75
2018-04-25T18:15:49.611Z,54.92
2018-04-25T18:18:15.445Z,54.51
2018-04-25T18:20:41.020Z,55.08
2018-04-25T18:23:06.634Z,54.82
2018-04-25T18:25:32.928Z,54.57
2018-04-25T18:27:58.768Z,54.20
2018-04-25T18:30:24.466Z,54.74
2018-04-25T18:32:50.280Z,54.90
2018-04-25T18:35:15.936Z,55.08
2018-04-25T18:37:41.507Z,55.13
2018-04-25T18:40:07.300Z,54.86
2018-04-25T18:42:32.913Z,55.68
2018-04-25T18:44:58.678Z,55.67
2018-04-25T18:47:24.485Z,55.84
2018-04-25T18:49:50.049Z,55.84
2018-04-25T18:52:15.693Z,55.49
2018-04-25T18:54:41.475Z,55.91
2018-04-25T18:57:07.138Z,55.49
2018-04-25T18:59:32.926Z,56.13
2018-04-25T19:01:58.621Z,56.67
2018-04-25T19:04:24.313Z,56.88
2018-04-25T19:06:49.884Z,57.07
2018-04-25T19:09:18.267Z,56.77
2018-04-25T19:11:44.018Z,57.74
2018-04-25T19:14:09.618Z,57.69
2018-04-25T19:16:35.696Z,57.51
2018-04-25T19:19:01.814Z,56.53
2018-04-25T19:21:27.404Z,55.56
2018-04-25T19:23:53.362Z,55.19
2018-04-25T19:26:19.282Z,55.46
2018-04-25T19:28:45.242Z,55.46
2018-04-25T19:31:10.994Z,55.10
2018-04-25T19:33:36.687Z,55.02
2018-04-25T19:36:02.529Z,55.24
2018-04-25T19:38:28.274Z,55.30
2018-04-25T19:40:53.921Z,55.00
2018-04-25T19:43:19.542Z,55.27
2018-04-25T19:45:45.669Z,55.72
2018-04-25T19:48:11.299Z,55.45
2018-04-25T19:50:36.867Z,55.21
2018-04-25T19:53:02.935Z,56.13
2018-04-25T19:55:28.604Z,56.05
2018-04-25T19:57:54.289Z,56.64
2018-04-25T20:00:20.279Z,56.37
2018-04-25T20:02:45.849Z,56.55
2018-04-25T20:05:11.649Z,56.00
2018-04-25T20:07:37.507Z,56.60
2018-04-25T20:10:03.083Z,56.84
2018-04-25T20:12:29.168Z,57.06
2018-04-25T20:14:54.913Z,57.13
2018-04-25T20:17:20.533Z,57.28
2018-04-25T20:19:46.325Z,57.93
2018-04-25T20:22:12.184Z,59.43
2018-04-25T20:24:37.775Z,59.43
2018-04-25T20:27:03.555Z,60.04
2018-04-25T20:29:29.133Z,60.11
2018-04-25T20:31:54.765Z,60.48
2018-04-25T20:34:20.652Z,61.40
2018-04-25T20:36:46.238Z,61.96
2018-04-25T20:39:11.842Z,62.52
2018-04-25T20:41:37.761Z,61.99
2018-04-25T20:44:03.716Z,62.86
2018-04-25T20:46:29.535Z,63.21
2018-04-25T20:48:55.847Z,63.04
2018-04-25T20:51:21.398Z,63.32
2018-04-25T20:53:47.024Z,63.30
2018-04-25T20:56:12.802Z,63.61
2018-04-25T20:58:38.428Z,63.59
2018-04-25T21:01:04.256Z,64.22
2018-04-25T21:03:30.385Z,63.76
2018-04-25T21:05:56.191Z,64.45
2018-04-25T21:08:21.767Z,64.10
2018-04-25T21:10:48.078Z,63.78
2018-04-25T21:13:13.989Z,64.59
2018-04-25T21:15:39.697Z,65.57
2018-04-25T21:18:05.513Z,65.39
2018-04-25T21:20:31.331Z,66.87
2018-04-25T21:22:56.973Z,67.75
2018-04-25T21:25:22.544Z,66.23
2018-04-25T21:27:48.397Z,68.01
2018-04-25T21:30:14.067Z,67.21
2018-04-25T21:32:39.683Z,67.56
2018-04-25T21:35:05.498Z,67.81
2018-04-25T21:37:31.127Z,67.35
2018-04-25T21:39:56.929Z,66.44
2018-04-25T21:42:22.889Z,66.53
2018-04-25T21:44:48.884Z,67.18
2018-04-25T21:47:14.454Z,67.87
2018-04-25T21:49:40.358Z,67.65
2018-04-25T21:52:05.971Z,68.17
2018-04-25T21:54:31.606Z,68.44
2018-04-25T21:56:57.411Z,69.27
2018-04-25T21:59:23.000Z,69.04
2018-04-25T22:01:48.551Z,68.04
2018-04-25T22:04:14.548Z,68.19
2018-04-25T22:06:40.111Z,67.83
2018-04-25T22:09:05.816Z,67.20
2018-04-25T22:11:31.614Z,67.44
2018-04-25T22:13:57.270Z,67.00
2018-04-25T22:16:22.969Z,67.28
2018-04-25T22:18:48.808Z,67.62
2018-04-25T22:21:14.709Z,67.38
2018-04-25T22:23:40.302Z,67.56
2018-04-25T22:26:06.193Z,67.07
2018-04-25T22:28:31.754Z,67.24
2018-04-25T22:30:58.645Z,67.52
2018-04-25T22:33:24.394Z,67.17
2018-04-25T22:35:50.218Z,67.48
2018-04-25T22:38:15.857Z,67.87
2018-04-25T22:40:41.601Z,68.21
2018-04-25T22:43:07.263Z,68.94
2018-04-25T22:45:32.936Z,68.84
2018-04-25T22:47:59.143Z,68.78
2018-04-25T22:50:24.765Z,69.14
2018-04-25T22:52:50.353Z,68.80
2018-04-25T22:55:16.050Z,69.29
2018-04-25T22:57:41.632Z,69.52
2018-04-25T23:00:07.185Z,69.61
2018-04-25T23:05:05.218Z,70.03
2018-04-25T23:07:30.941Z,70.42
